Time;durP1;ratioP1;P1;durP2;ratioP2;P2;SDS_P1;SDS_P2;PMS_P1;PMS_P2;Temp;Humidity;BMP_temperature;BMP_pressure;BME280_temperature;BME280_humidity;BME280_pressure;Samples;Min_cycle;Max_cycle;Signal;HPM_P1;HPM_P2
2021/12/23 00:00:55;;;;;;;11.12;5.15;;;;;;;-9.11;68.23;101051.84;1766694;81;22225;-72
2021/12/23 00:03:22;;;;;;;12.68;5.97;;;;;;;-9.11;68.34;101052.70;1754126;81;20963;-73
2021/12/23 00:05:49;;;;;;;9.95;5.45;;;;;;;-9.11;68.32;101051.84;1700996;84;20969;-73
2021/12/23 00:08:16;;;;;;;9.53;4.97;;;;;;;-9.07;68.39;101051.91;1706875;83;21045;-73
2021/12/23 00:10:44;;;;;;;10.98;5.92;;;;;;;-9.05;68.46;101052.78;1731004;80;20999;-73
2021/12/23 00:13:10;;;;;;;9.28;5.78;;;;;;;-9.04;68.53;101045.95;1741980;80;21802;-73
2021/12/23 00:16:01;;;;;;;9.38;5.50;;;;;;;-9.02;68.59;101049.39;1754417;81;21060;-72
2021/12/23 00:18:41;;;;;;;9.15;4.92;;;;;;;-9.02;68.66;101045.55;1694632;82;21016;-72
2021/12/23 00:23:28;;;;;;;9.90;5.37;;;;;;;-9.04;68.75;101048.09;1764673;81;21104;-73
2021/12/23 00:26:00;;;;;;;10.60;5.70;;;;;;;-9.08;68.72;101050.16;1738708;82;22247;-73
2021/12/23 00:28:26;;;;;;;7.70;5.62;;;;;;;-9.12;68.69;101054.83;1738696;81;21453;-73
2021/12/23 00:30:54;;;;;;;6.33;4.62;;;;;;;-9.15;68.72;101057.78;1738042;81;21049;-73
2021/12/23 00:33:22;;;;;;;8.85;5.12;;;;;;;-9.16;68.78;101058.62;1739426;81;20962;-73
2021/12/23 00:35:50;;;;;;;10.15;5.83;;;;;;;-9.19;68.79;101063.27;1738425;82;20940;-72
2021/12/23 00:38:23;;;;;;;10.35;5.75;;;;;;;-9.25;68.77;101064.48;1729823;81;21402;-72
2021/12/23 00:40:46;;;;;;;9.90;4.87;;;;;;;-9.31;68.82;101061.42;1716425;83;21488;-72
2021/12/23 00:43:13;;;;;;;8.38;5.03;;;;;;;-9.33;68.98;101061.83;1719450;81;20968;-73
2021/12/23 00:45:39;;;;;;;12.45;5.75;;;;;;;-9.33;68.98;101061.83;1737440;81;21014;-73
2021/12/23 00:48:06;;;;;;;9.98;5.90;;;;;;;-9.32;69.01;101060.13;1762371;81;21547;-72
2021/12/23 00:50:32;;;;;;;10.13;5.87;;;;;;;-9.31;69.00;101071.66;1757315;80;22453;-73
2021/12/23 00:53:01;;;;;;;10.78;5.97;;;;;;;-9.32;69.08;101059.70;1705240;83;20971;-72
2021/12/23 00:55:28;;;;;;;12.10;6.37;;;;;;;-9.36;69.00;101065.64;1705377;82;21355;-73
2021/12/23 00:57:54;;;;;;;9.35;5.45;;;;;;;-9.38;69.03;101057.48;1722695;83;21004;-72
2021/12/23 01:00:21;;;;;;;10.90;5.53;;;;;;;-9.40;69.11;101062.58;1722464;82;20964;-72
2021/12/23 01:02:48;;;;;;;10.95;5.85;;;;;;;-9.42;69.11;101059.16;1722430;83;21826;-72
2021/12/23 01:05:18;;;;;;;9.25;5.85;;;;;;;-9.42;69.15;101063.41;1721811;82;21488;-73
2021/12/23 01:07:46;;;;;;;11.10;5.70;;;;;;;-9.41;69.18;101060.87;1762493;80;21540;-73
2021/12/23 01:10:13;;;;;;;8.45;4.75;;;;;;;-9.36;69.16;101064.75;1700961;84;20973;-72
2021/12/23 01:12:49;;;;;;;9.20;5.17;;;;;;;-9.37;69.14;101058.77;1738857;82;21393;-72
2021/12/23 01:15:27;;;;;;;10.28;5.05;;;;;;;-9.38;69.04;101068.99;1705128;82;21858;-74
2021/12/23 01:17:57;;;;;;;7.60;4.85;;;;;;;-9.42;68.95;101069.81;1693692;84;21441;-72
2021/12/23 01:20:32;;;;;;;9.85;5.10;;;;;;;-9.46;68.99;101068.89;1716793;82;21095;-72
2021/12/23 01:23:07;;;;;;;8.20;5.35;;;;;;;-9.47;68.91;101074.84;1725349;81;21060;-72
2021/12/23 01:25:35;;;;;;;8.78;5.25;;;;;;;-9.49;68.89;101068.00;1752441;80;21018;-72
2021/12/23 01:28:02;;;;;;;9.78;5.50;;;;;;;-9.47;69.03;101070.15;1700012;83;21757;-72
2021/12/23 01:30:30;;;;;;;10.20;5.42;;;;;;;-9.49;69.08;101071.41;1717376;83;20989;-72
2021/12/23 01:32:56;;;;;;;9.03;6.33;;;;;;;-9.47;69.15;101071.01;1717713;82;21013;-72
2021/12/23 01:35:25;;;;;;;10.08;5.90;;;;;;;-9.46;69.25;101070.17;1717303;83;21581;-73
2021/12/23 01:37:51;;;;;;;9.55;6.00;;;;;;;-9.45;69.35;101063.38;1717729;83;20961;-72
2021/12/23 01:40:19;;;;;;;9.20;5.72;;;;;;;-9.44;69.36;101068.52;1717902;81;22633;-72
2021/12/23 01:42:46;;;;;;;9.83;5.97;;;;;;;-9.46;69.41;101069.31;1717760;83;21452;-72
2021/12/23 01:45:16;;;;;;;9.40;5.85;;;;;;;-9.45;69.49;101068.50;1717721;83;20969;-72
2021/12/23 01:47:43;;;;;;;10.40;6.00;;;;;;;-9.45;69.53;101077.45;1718554;81;21220;-72
2021/12/23 01:50:11;;;;;;;10.50;4.85;;;;;;;-9.44;69.55;101073.63;1761946;81;20932;-72
2021/12/23 01:52:39;;;;;;;9.10;5.15;;;;;;;-9.45;69.41;101076.17;1761977;80;22244;-72
2021/12/23 01:55:08;;;;;;;8.83;4.87;;;;;;;-9.48;69.30;101075.69;1761884;80;20976;-72
2021/12/23 01:57:35;;;;;;;7.40;4.75;;;;;;;-9.48;69.41;101071.85;1739556;81;21001;-73
2021/12/23 02:00:06;;;;;;;7.97;5.03;;;;;;;-9.46;69.44;101074.42;1704654;82;21603;-72
2021/12/23 02:02:35;;;;;;;8.65;4.37;;;;;;;-9.45;69.43;101078.30;1723511;81;20988;-72
2021/12/23 02:05:01;;;;;;;10.45;4.75;;;;;;;-9.44;69.28;101077.89;1722314;83;22239;-72
2021/12/23 02:07:29;;;;;;;7.80;4.72;;;;;;;-9.46;69.17;101075.70;1722856;82;20936;-72
2021/12/23 02:09:57;;;;;;;6.97;4.35;;;;;;;-9.48;69.01;101074.41;1722324;83;20995;-73
2021/12/23 02:12:24;;;;;;;9.40;4.28;;;;;;;-9.48;68.76;101074.83;1722632;83;21011;-73
2021/12/23 02:14:51;;;;;;;7.17;4.37;;;;;;;-9.51;68.55;101070.55;1718790;81;20960;-72
2021/12/23 02:17:17;;;;;;;6.55;3.75;;;;;;;-9.50;68.31;101074.81;1736978;81;21803;-72
2021/12/23 02:19:43;;;;;;;6.37;3.77;;;;;;;-9.49;68.14;101075.67;1720255;83;21504;-73
2021/12/23 02:22:10;;;;;;;6.15;3.80;;;;;;;-9.48;68.03;101077.39;1721600;82;20954;-72
2021/12/23 02:24:37;;;;;;;6.97;4.33;;;;;;;-9.48;68.03;101074.41;1721564;83;21003;-72
2021/12/23 02:27:05;;;;;;;8.70;4.37;;;;;;;-9.47;67.97;101073.98;1721795;82;21475;-72
2021/12/23 02:29:31;;;;;;;26.77;16.65;;;;;;;-9.45;68.02;101073.19;1717911;83;21810;-72
2021/12/23 02:31:58;;;;;;;29.00;16.70;;;;;;;-9.43;67.98;101078.32;1717586;83;20982;-72
2021/12/23 02:34:25;;;;;;;48.70;21.42;;;;;;;-9.45;67.86;101073.19;1717650;83;21454;-72
2021/12/23 02:36:57;;;;;;;34.43;16.42;;;;;;;-9.47;67.72;101074.84;1718393;82;21055;-72
2021/12/23 02:39:25;;;;;;;19.50;9.78;;;;;;;-9.46;67.60;101074.42;1718146;83;21035;-72
2021/12/23 02:41:51;;;;;;;45.10;25.27;;;;;;;-9.47;67.54;101068.45;1718147;81;21784;-72
2021/12/23 02:44:18;;;;;;;33.02;16.95;;;;;;;-9.51;67.16;101064.15;1717836;83;20988;-72
2021/12/23 02:46:45;;;;;;;21.45;11.08;;;;;;;-9.51;67.17;101073.10;1717857;83;21029;-72
2021/12/23 02:49:11;;;;;;;16.67;9.70;;;;;;;-9.51;67.13;101066.70;1717780;83;21375;-72
2021/12/23 02:51:38;;;;;;;16.65;11.30;;;;;;;-9.50;66.89;101076.52;1689367;83;21072;-72
2021/12/23 02:54:04;;;;;;;11.40;8.15;;;;;;;-9.53;66.89;101081.17;1687677;85;22208;-72
2021/12/23 02:56:31;;;;;;;18.20;10.38;;;;;;;-9.54;66.95;101082.02;1696590;83;20949;-72
2021/12/23 02:58:57;;;;;;;28.85;13.32;;;;;;;-9.54;67.03;101082.88;1717964;81;21041;-72
2021/12/23 03:01:24;;;;;;;38.45;18.55;;;;;;;-9.52;67.01;101084.17;1718288;81;21090;-72
2021/12/23 03:03:51;;;;;;;51.58;23.50;;;;;;;-9.54;67.06;101081.59;1717937;83;20968;-72
2021/12/23 03:06:19;;;;;;;75.78;34.80;;;;;;;-9.54;66.96;101074.34;1717974;83;22200;-73
2021/12/23 03:08:50;;;;;;;63.13;32.17;;;;;;;-9.58;66.96;101074.70;1717721;83;21078;-72
2021/12/23 03:11:20;;;;;;;61.98;31.95;;;;;;;-9.60;66.88;101076.81;1717165;83;21010;-72
2021/12/23 03:13:46;;;;;;;57.40;32.23;;;;;;;-9.62;66.96;101075.52;1717723;83;21531;-72
2021/12/23 03:16:13;;;;;;;55.08;30.97;;;;;;;-9.63;66.93;101069.97;1701717;83;21116;-72
2021/12/23 03:18:40;;;;;;;20.82;11.68;;;;;;;-9.62;66.99;101066.56;1706397;83;21518;-73
2021/12/23 03:21:07;;;;;;;22.10;12.53;;;;;;;-9.59;67.02;101066.59;1710454;83;21043;-74
2021/12/23 03:23:33;;;;;;;13.03;7.58;;;;;;;-9.59;67.06;101070.86;1720124;82;21005;-72
2021/12/23 03:26:00;;;;;;;10.80;7.08;;;;;;;-9.58;67.10;101076.41;1717555;82;21430;-72
2021/12/23 03:28:26;;;;;;;6.35;4.47;;;;;;;-9.58;67.09;101087.48;1699778;83;21065;-72
2021/12/23 03:30:54;;;;;;;7.42;4.67;;;;;;;-9.56;67.15;101084.95;1698433;84;21829;-72
2021/12/23 03:33:20;;;;;;;7.40;4.62;;;;;;;-9.54;67.20;101087.13;1699096;84;21447;-72
2021/12/23 03:35:47;;;;;;;8.05;4.10;;;;;;;-9.55;67.29;101091.81;1699029;84;21020;-72
2021/12/23 03:38:14;;;;;;;6.87;4.40;;;;;;;-9.54;67.30;101092.25;1698844;83;21096;-72
2021/12/23 03:40:41;;;;;;;5.78;4.05;;;;;;;-9.55;67.33;101093.09;1739134;82;20976;-72
2021/12/23 03:43:10;;;;;;;8.58;4.70;;;;;;;-9.56;67.47;101097.31;1716948;83;22169;-72
2021/12/23 03:45:35;;;;;;;5.80;3.98;;;;;;;-9.56;67.64;101090.92;1676045;84;21040;-72
2021/12/23 03:48:02;;;;;;;7.03;5.28;;;;;;;-9.55;67.72;101096.92;1688421;83;20990;-72
2021/12/23 03:50:29;;;;;;;7.53;4.95;;;;;;;-9.55;67.84;101096.92;1723032;83;20971;-72
2021/12/23 03:52:56;;;;;;;12.03;5.65;;;;;;;-9.55;67.93;101092.67;1716105;83;21029;-73
2021/12/23 03:55:23;;;;;;;8.25;4.92;;;;;;;-9.54;67.93;101092.25;1720866;81;21872;-72
2021/12/23 03:57:49;;;;;;;8.65;5.35;;;;;;;-9.52;67.97;101086.30;1679476;82;21453;-73
2021/12/23 04:00:18;;;;;;;8.75;5.37;;;;;;;-9.50;68.05;101093.14;1763964;80;21005;-73
2021/12/23 04:02:45;;;;;;;7.35;5.22;;;;;;;-9.50;68.05;101091.44;1752605;81;21013;-72
2021/12/23 04:05:12;;;;;;;9.68;5.62;;;;;;;-9.47;68.05;101091.47;1752652;82;21444;-73
2021/12/23 04:07:40;;;;;;;9.60;5.00;;;;;;;-9.46;68.05;101096.16;1752601;81;22614;-72
2021/12/23 04:10:07;;;;;;;6.75;4.25;;;;;;;-9.48;68.11;101096.14;1749686;80;21017;-72
2021/12/23 04:12:34;;;;;;;8.58;5.25;;;;;;;-9.48;68.22;101102.54;1774155;80;21099;-72
2021/12/23 04:15:00;;;;;;;11.90;6.10;;;;;;;-9.49;68.20;101097.41;1776434;79;20949;-72
2021/12/23 04:17:27;;;;;;;11.00;6.35;;;;;;;-9.52;68.28;101100.79;1757025;81;21071;-72
2021/12/23 04:19:59;;;;;;;8.75;4.92;;;;;;;-9.51;68.38;101099.95;1780219;79;21821;-73
2021/12/23 04:22:21;;;;;;;11.10;6.60;;;;;;;-9.49;68.47;101103.80;1758228;79;20943;-72
2021/12/23 04:24:48;;;;;;;10.10;6.28;;;;;;;-9.50;68.45;101102.09;1745683;81;21052;-72
2021/12/23 04:27:14;;;;;;;7.40;4.85;;;;;;;-9.50;68.50;101104.22;1777797;79;21056;-72
2021/12/23 04:29:41;;;;;;;14.15;7.60;;;;;;;-9.48;68.53;101115.33;1804667;79;20928;-73
2021/12/23 04:32:08;;;;;;;11.55;7.40;;;;;;;-9.52;68.63;101115.72;1780912;79;22759;-72
2021/12/23 04:34:34;;;;;;;15.83;8.48;;;;;;;-9.54;68.72;101117.39;1778003;80;21514;-72
2021/12/23 04:37:01;;;;;;;15.75;8.85;;;;;;;-9.54;68.79;101119.09;1778121;80;20933;-72
2021/12/23 04:39:27;;;;;;;15.63;10.15;;;;;;;-9.52;68.84;101124.66;1778062;79;21029;-73
2021/12/23 04:41:54;;;;;;;13.15;7.40;;;;;;;-9.52;68.88;101118.69;1778115;80;21039;-72
2021/12/23 04:44:20;;;;;;;14.13;8.55;;;;;;;-9.50;68.87;101123.82;1760386;80;22171;-72
2021/12/23 04:46:47;;;;;;;12.70;8.05;;;;;;;-9.51;68.91;101122.97;1771747;80;21095;-72
2021/12/23 04:49:13;;;;;;;11.23;6.40;;;;;;;-9.50;68.95;101120.84;1701368;82;20958;-73
2021/12/23 04:51:40;;;;;;;12.73;8.50;;;;;;;-9.49;68.95;101120.42;1718338;83;20960;-72
2021/12/23 04:54:08;;;;;;;13.30;7.22;;;;;;;-9.48;69.07;101131.09;1766985;81;21419;-73
2021/12/23 04:56:34;;;;;;;17.40;10.08;;;;;;;-9.51;69.05;101125.52;1767739;80;21852;-71
2021/12/23 04:59:00;;;;;;;16.40;10.95;;;;;;;-9.54;69.05;101121.23;1772333;79;20930;-73
2021/12/23 05:01:29;;;;;;;19.62;11.68;;;;;;;-9.55;69.10;101127.19;1771983;80;21507;-73
2021/12/23 05:03:55;;;;;;;14.13;7.20;;;;;;;-9.55;69.16;101132.30;1772917;80;20997;-72
2021/12/23 05:06:22;;;;;;;13.53;6.95;;;;;;;-9.54;69.21;101137.00;1785000;79;20996;-72
2021/12/23 05:08:48;;;;;;;11.80;7.00;;;;;;;-9.53;69.20;101130.62;1786782;79;22233;-72
2021/12/23 05:11:16;;;;;;;10.80;6.45;;;;;;;-9.50;69.27;101132.77;1774713;80;21467;-70
2021/12/23 05:13:47;;;;;;;11.55;6.33;;;;;;;-9.50;69.29;101137.47;1734605;81;21099;-72
2021/12/23 05:16:17;;;;;;;13.05;6.87;;;;;;;-9.46;69.29;101139.64;1678958;81;21469;-73
2021/12/23 05:18:45;;;;;;;13.08;8.00;;;;;;;-9.48;69.22;101149.84;1721959;82;21051;-74
2021/12/23 05:21:11;;;;;;;13.65;8.03;;;;;;;-9.48;69.24;101147.30;1714843;81;21809;-75
2021/12/23 05:23:39;;;;;;;13.72;7.50;;;;;;;-9.44;69.32;101156.75;1726267;81;21117;-76
2021/12/23 05:26:07;;;;;;;9.40;6.42;;;;;;;-9.43;69.31;101152.06;1726475;82;21032;-76
2021/12/23 05:28:35;;;;;;;16.12;11.12;;;;;;;-9.45;69.37;101158.87;1737103;82;21034;-75
2021/12/23 05:31:01;;;;;;;16.50;11.28;;;;;;;-9.46;69.41;101160.95;1752364;80;21028;-78
2021/12/23 05:33:28;;;;;;;27.13;16.97;;;;;;;-9.45;69.46;101165.27;1751979;80;23154;-73
2021/12/23 05:35:55;;;;;;;31.03;17.07;;;;;;;-9.47;69.55;101164.35;1705539;82;21072;-74
2021/12/23 05:38:23;;;;;;;23.27;13.50;;;;;;;-9.46;69.54;101169.91;1748076;80;20989;-73
2021/12/23 05:40:50;;;;;;;41.60;24.30;;;;;;;-9.45;69.52;101178.05;1751092;80;21005;-72
2021/12/23 05:43:17;;;;;;;31.68;19.25;;;;;;;-9.43;69.60;101179.34;1748133;80;21082;-73
2021/12/23 05:45:45;;;;;;;20.00;12.55;;;;;;;-9.40;69.65;101178.09;1755338;80;21807;-74
2021/12/23 05:48:11;;;;;;;16.85;11.00;;;;;;;-9.36;69.65;101182.41;1733658;81;20949;-71
2021/12/23 05:50:37;;;;;;;14.45;8.88;;;;;;;-9.34;69.63;101182.89;1750495;80;21045;-73
2021/12/23 05:53:04;;;;;;;14.43;8.83;;;;;;;-9.33;69.65;101185.89;1747468;80;21307;-74
2021/12/23 05:55:30;;;;;;;13.25;7.42;;;;;;;-9.31;69.67;101182.07;1765529;80;21402;-74
2021/12/23 05:57:59;;;;;;;14.25;7.97;;;;;;;-9.29;69.67;101189.34;1737630;82;22614;-73
2021/12/23 06:00:29;;;;;;;11.93;7.40;;;;;;;-9.28;69.68;101190.64;1738394;82;20998;-74
2021/12/23 06:02:56;;;;;;;13.13;7.20;;;;;;;-9.26;69.67;101190.27;1738348;81;21006;-74
2021/12/23 06:05:22;;;;;;;11.97;7.45;;;;;;;-9.25;69.69;101188.14;1743571;81;21038;-74
2021/12/23 06:07:49;;;;;;;15.58;9.55;;;;;;;-9.25;69.66;101194.54;1740447;81;20981;-74
2021/12/23 06:10:16;;;;;;;14.75;9.30;;;;;;;-9.24;69.73;101192.42;1690348;84;22817;-73
2021/12/23 06:12:43;;;;;;;15.85;8.25;;;;;;;-9.21;69.76;101186.89;1690100;85;20957;-74
2021/12/23 06:15:10;;;;;;;12.65;6.83;;;;;;;-9.19;69.73;101191.19;1717917;82;21143;-74
2021/12/23 06:17:36;;;;;;;12.40;6.87;;;;;;;-9.21;69.49;101192.87;1730582;81;21057;-73
2021/12/23 06:20:05;;;;;;;11.68;6.50;;;;;;;-9.29;69.32;101202.98;1729593;83;21059;-73
2021/12/23 06:22:37;;;;;;;13.28;7.17;;;;;;;-9.34;69.35;101190.56;1728014;81;21881;-73
2021/12/23 06:25:05;;;;;;;13.32;7.95;;;;;;;-9.37;69.31;101196.90;1728283;82;21367;-73
2021/12/23 06:27:33;;;;;;;19.37;11.65;;;;;;;-9.39;69.27;101201.13;1728027;83;20956;-73
2021/12/23 06:29:59;;;;;;;23.27;11.28;;;;;;;-9.41;69.24;101202.81;1728714;82;21163;-73
2021/12/23 06:32:26;;;;;;;18.05;9.05;;;;;;;-9.44;69.27;101202.78;1729272;81;21021;-73
2021/12/23 06:34:53;;;;;;;19.00;10.00;;;;;;;-9.46;69.28;101205.71;1730437;82;21881;-74
2021/12/23 06:37:19;;;;;;;18.20;8.83;;;;;;;-9.47;69.30;101209.11;1728256;82;20983;-73
2021/12/23 06:39:47;;;;;;;15.45;7.75;;;;;;;-9.47;69.38;101205.27;1695448;83;21063;-74
2021/12/23 06:42:13;;;;;;;23.35;14.13;;;;;;;-9.45;69.43;101201.06;1728448;81;21018;-73
2021/12/23 06:44:40;;;;;;;21.75;11.65;;;;;;;-9.44;69.39;101201.92;1728489;82;21094;-74
2021/12/23 06:47:09;;;;;;;18.30;10.20;;;;;;;-9.43;69.41;101209.61;1728158;82;21456;-74
2021/12/23 06:49:35;;;;;;;20.50;10.68;;;;;;;-9.41;69.38;101210.49;1728387;82;21491;-74
2021/12/23 06:52:02;;;;;;;21.80;11.25;;;;;;;-9.39;69.33;101210.09;1728058;81;20956;-73
2021/12/23 06:54:32;;;;;;;13.58;8.65;;;;;;;-9.38;69.40;101214.36;1728069;83;20945;-73
2021/12/23 06:56:58;;;;;;;15.23;8.60;;;;;;;-9.33;69.49;101211.47;1733252;81;20965;-73
2021/12/23 06:59:25;;;;;;;14.60;9.25;;;;;;;-9.30;69.41;101214.06;1730959;82;22560;-74
2021/12/23 07:01:51;;;;;;;12.05;7.30;;;;;;;-9.29;69.28;101217.06;1728217;81;20951;-73
2021/12/23 07:04:20;;;;;;;11.18;7.22;;;;;;;-9.26;69.21;101220.97;1729261;81;21462;-72
2021/12/23 07:06:48;;;;;;;12.68;7.00;;;;;;;-9.30;69.09;101220.45;1728831;82;21514;-75
2021/12/23 07:09:15;;;;;;;10.20;6.47;;;;;;;-9.29;69.08;101218.76;1732467;82;21153;-76
2021/12/23 07:11:42;;;;;;;14.15;8.40;;;;;;;-9.29;68.97;101227.71;1722167;81;22412;-71
2021/12/23 07:14:08;;;;;;;12.55;7.97;;;;;;;-9.32;68.81;101225.98;1728034;81;21011;-68
2021/12/23 07:16:38;;;;;;;13.88;8.85;;;;;;;-9.35;68.88;101223.38;1732359;82;21534;-73
2021/12/23 07:19:03;;;;;;;12.93;7.15;;;;;;;-9.33;68.93;101231.94;1676802;82;21651;-71
2021/12/23 07:21:30;;;;;;;17.85;12.03;;;;;;;-9.30;68.90;101221.73;1691224;84;21031;-72
2021/12/23 07:23:56;;;;;;;24.18;12.55;;;;;;;-9.32;68.88;101227.25;1708887;83;21857;-71
2021/12/23 07:26:23;;;;;;;18.42;10.70;;;;;;;-9.29;68.98;101227.29;1720310;83;20873;-73
2021/12/23 07:28:49;;;;;;;14.55;7.05;;;;;;;-9.23;68.95;101230.37;1719882;83;20952;-76
2021/12/23 07:31:16;;;;;;;11.45;6.95;;;;;;;-9.20;68.72;101230.83;1720135;83;21056;-75
2021/12/23 07:33:42;;;;;;;11.10;6.85;;;;;;;-9.24;68.61;101230.80;1706476;82;21443;-70
2021/12/23 07:36:09;;;;;;;14.70;7.83;;;;;;;-9.22;68.65;101229.53;1724249;82;21822;-71
2021/12/23 07:38:37;;;;;;;15.18;7.67;;;;;;;-9.21;68.50;101233.80;1726093;82;21004;-75
2021/12/23 07:41:04;;;;;;;20.20;10.72;;;;;;;-9.21;68.30;101227.83;1697735;83;20985;-80
2021/12/23 07:46:03;;;;;;;14.45;7.97;;;;;;;-9.17;68.36;101234.28;1697703;84;20983;-77
2021/12/23 07:48:33;;;;;;;10.60;6.12;;;;;;;-9.13;68.20;101235.20;1695921;84;21940;-74
2021/12/23 07:51:01;;;;;;;10.90;7.03;;;;;;;-9.12;67.85;101235.64;1699102;83;20999;-71
2021/12/23 07:53:27;;;;;;;11.93;7.90;;;;;;;-9.15;67.87;101238.17;1701808;82;21056;-75
2021/12/23 07:55:54;;;;;;;12.33;7.05;;;;;;;-9.13;68.00;101247.58;1697369;84;20952;-72
2021/12/23 07:58:20;;;;;;;11.33;6.67;;;;;;;-9.10;67.83;101239.08;1698011;83;21036;-71
2021/12/23 08:00:46;;;;;;;10.85;6.10;;;;;;;-9.07;67.70;101241.67;1697580;84;22912;-75
2021/12/23 08:03:13;;;;;;;10.03;6.08;;;;;;;-9.06;67.84;101241.72;1697418;84;20967;-74
2021/12/23 08:05:41;;;;;;;9.08;6.30;;;;;;;-9.02;67.81;101238.77;1701431;82;21402;-74
2021/12/23 08:08:07;;;;;;;15.40;8.83;;;;;;;-9.00;67.63;101237.95;1707005;82;21004;-74
2021/12/23 08:10:34;;;;;;;12.53;6.47;;;;;;;-9.00;67.53;101235.80;1697588;84;21402;-73
2021/12/23 08:13:01;;;;;;;8.90;6.37;;;;;;;-9.00;67.42;101234.11;1697766;84;22437;-73
2021/12/23 08:15:29;;;;;;;12.43;8.05;;;;;;;-9.00;67.22;101235.80;1698325;83;21055;-74
2021/12/23 08:17:55;;;;;;;13.25;7.67;;;;;;;-8.97;67.23;101237.16;1725405;83;21064;-72
2021/12/23 08:20:22;;;;;;;17.65;10.20;;;;;;;-8.99;67.03;101237.52;1719399;83;20964;-73
2021/12/23 08:22:49;;;;;;;13.30;8.60;;;;;;;-8.99;67.01;101233.27;1724115;81;21427;-72
2021/12/23 08:25:16;;;;;;;12.18;7.60;;;;;;;-8.96;67.01;101228.20;1789072;80;22797;-72
2021/12/23 08:27:43;;;;;;;10.63;6.80;;;;;;;-8.93;66.61;101226.10;1788821;80;20976;-72
2021/12/23 08:30:12;;;;;;;9.95;6.25;;;;;;;-8.92;66.51;101226.53;1805252;78;20952;-71
2021/12/23 08:32:39;;;;;;;9.33;5.92;;;;;;;-8.89;66.11;101227.84;1801013;78;20972;-72
2021/12/23 08:35:06;;;;;;;10.55;6.85;;;;;;;-8.90;65.99;101224.85;1785779;78;21063;-72
2021/12/23 08:37:39;;;;;;;9.48;6.12;;;;;;;-8.87;65.72;101224.91;1786558;80;21048;-72
2021/12/23 08:40:08;;;;;;;11.33;7.80;;;;;;;-8.85;65.59;101221.95;1737266;81;20999;-72
2021/12/23 08:42:36;;;;;;;10.38;6.42;;;;;;;-8.82;65.35;101215.58;1750942;80;20978;-72
2021/12/23 08:45:05;;;;;;;8.05;5.10;;;;;;;-8.83;65.34;101215.14;1788875;80;20961;-72
2021/12/23 08:47:32;;;;;;;10.15;6.42;;;;;;;-8.77;65.20;101220.35;1788455;80;20956;-73
2021/12/23 08:49:58;;;;;;;13.90;7.75;;;;;;;-8.78;65.18;101213.52;1773409;80;22147;-72
2021/12/23 08:52:25;;;;;;;12.00;8.00;;;;;;;-8.79;64.79;101209.20;1787755;80;21469;-72
2021/12/23 08:54:51;;;;;;;10.10;6.97;;;;;;;-8.77;64.68;101206.69;1788881;80;20940;-72
2021/12/23 08:57:18;;;;;;;12.05;6.97;;;;;;;-8.73;64.67;101203.31;1788869;80;21037;-72
2021/12/23 08:59:46;;;;;;;10.95;7.28;;;;;;;-8.64;64.66;101200.01;1788903;80;21569;-71
2021/12/23 09:02:12;;;;;;;10.82;6.53;;;;;;;-8.55;64.64;101196.28;1787775;79;22215;-72
2021/12/23 09:04:41;;;;;;;8.78;6.30;;;;;;;-8.46;64.29;101197.23;1775857;79;21377;-70
2021/12/23 09:07:08;;;;;;;9.53;6.65;;;;;;;-8.40;63.95;101190.88;1765139;81;20981;-70
2021/12/23 09:09:37;;;;;;;11.70;8.25;;;;;;;-8.29;63.77;101188.42;1765489;79;20980;-70
2021/12/23 09:12:06;;;;;;;10.25;6.28;;;;;;;-8.16;63.77;101184.27;1764936;81;20948;-71
2021/12/23 09:14:33;;;;;;;9.53;5.45;;;;;;;-8.01;63.10;101189.52;1765499;81;21798;-74
2021/12/23 09:17:00;;;;;;;8.63;4.78;;;;;;;-7.87;62.53;101188.39;1775266;79;21390;-74
2021/12/23 09:19:27;;;;;;;6.60;4.00;;;;;;;-7.84;61.69;101189.26;1784137;80;20968;-73
2021/12/23 09:21:55;;;;;;;7.12;4.62;;;;;;;-7.80;60.98;101180.77;1773522;80;21057;-73
2021/12/23 09:24:22;;;;;;;6.42;4.08;;;;;;;-7.76;60.57;101180.78;1789841;80;21007;-76
2021/12/23 09:26:59;;;;;;;6.60;3.30;;;;;;;-7.72;60.21;101173.14;1792456;78;21820;-74
2021/12/23 09:34:51;;;;;;;7.60;5.25;;;;;;;-7.76;58.83;101174.37;1793318;78;20948;-69
2021/12/23 09:37:18;;;;;;;10.48;7.08;;;;;;;-7.76;58.88;101169.23;1789858;78;21494;-69
2021/12/23 09:39:45;;;;;;;8.43;5.87;;;;;;;-7.75;58.71;101174.38;1788671;79;21827;-70
2021/12/23 09:42:12;;;;;;;8.38;5.28;;;;;;;-7.76;59.02;101172.66;1746073;81;20944;-70
2021/12/23 09:44:40;;;;;;;8.10;4.53;;;;;;;-7.67;59.53;101168.89;1760324;81;21470;-71
2021/12/23 09:47:07;;;;;;;8.30;4.35;;;;;;;-7.53;58.82;101168.97;1760635;81;21049;-70
2021/12/23 09:49:33;;;;;;;9.53;4.97;;;;;;;-7.46;59.45;101167.31;1760635;80;20946;-70
2021/12/23 09:52:00;;;;;;;6.40;4.53;;;;;;;-7.30;59.45;101162.30;1757042;80;21725;-72
2021/12/23 09:54:27;;;;;;;7.70;4.15;;;;;;;-7.19;58.93;101156.37;1741148;80;20995;-71
2021/12/23 09:56:54;;;;;;;6.55;4.00;;;;;;;-7.16;58.54;101164.93;1786403;80;20948;-71
2021/12/23 09:59:26;;;;;;;7.30;4.10;;;;;;;-7.16;57.94;101157.66;1733617;81;21609;-71
2021/12/23 10:01:49;;;;;;;8.18;4.20;;;;;;;-7.16;58.08;101151.23;1805813;78;21559;-71
2021/12/23 10:04:15;;;;;;;7.10;3.80;;;;;;;-7.04;58.52;101146.19;1769857;78;22449;-71
2021/12/23 10:06:42;;;;;;;7.90;4.42;;;;;;;-6.92;57.68;101144.52;1757491;79;20971;-71
2021/12/23 10:09:12;;;;;;;5.03;3.55;;;;;;;-6.88;57.37;101147.09;1786327;78;20988;-71
2021/12/23 10:12:22;;;;;;;6.67;4.20;;;;;;;-6.87;56.97;101145.81;1792196;80;21466;-70
2021/12/23 10:31:21;;;;;;;9.85;5.53;;;;;;;-6.57;55.63;101123.64;1708991;82;23879;-69
2021/12/23 10:37:04;;;;;;;10.08;5.83;;;;;;;-6.59;54.80;101129.20;1711140;82;21090;-69
2021/12/23 10:39:23;;;;;;;10.32;6.42;;;;;;;-6.79;54.30;101116.31;1715851;83;21047;-68
2021/12/23 10:41:50;;;;;;;15.13;8.50;;;;;;;-6.80;54.63;101121.02;1715952;83;20943;-71
2021/12/23 10:44:29;;;;;;;12.47;6.97;;;;;;;-6.71;54.81;101117.20;1715930;83;21875;-70
2021/12/23 10:46:56;;;;;;;11.40;5.70;;;;;;;-6.64;54.75;101113.80;1738045;82;21037;-70
2021/12/23 10:52:04;;;;;;;8.38;4.87;;;;;;;-6.66;53.94;101109.05;1747269;82;20996;-70
2021/12/23 10:59:40;;;;;;;9.43;5.15;;;;;;;-6.64;54.22;101104.80;1698045;84;20953;-69
2021/12/23 11:02:23;;;;;;;7.80;4.70;;;;;;;-6.52;54.37;101098.40;1746686;82;20983;-70
2021/12/23 11:05:17;;;;;;;12.33;7.33;;;;;;;-6.43;54.22;101095.84;1714976;83;21433;-71
2021/12/23 11:07:59;;;;;;;13.00;6.37;;;;;;;-6.38;53.93;101089.41;1695326;82;20992;-70
2021/12/23 11:36:03;;;;;;;10.53;5.67;;;;;;;-6.38;52.87;101076.12;1704325;84;21051;-70
2021/12/23 11:38:59;;;;;;;10.08;5.92;;;;;;;-6.39;52.96;101076.13;1713914;83;22201;-70
2021/12/23 11:41:20;;;;;;;8.20;4.47;;;;;;;-6.43;52.98;101075.28;1751793;81;21022;-70
2021/12/23 11:43:52;;;;;;;8.93;4.83;;;;;;;-6.45;52.81;101073.14;1719899;81;20943;-71
2021/12/23 11:46:27;;;;;;;12.23;6.85;;;;;;;-6.48;52.88;101069.27;1747793;81;21082;-72
2021/12/23 11:48:55;;;;;;;10.58;5.92;;;;;;;-6.49;52.61;101073.12;1747587;81;21006;-70
2021/12/23 11:54:15;;;;;;;10.68;6.50;;;;;;;-6.49;52.50;101066.70;1749388;81;20985;-71
2021/12/23 11:56:53;;;;;;;10.75;6.60;;;;;;;-6.55;52.74;101057.29;1750616;81;20968;-72
2021/12/23 11:59:20;;;;;;;12.78;7.67;;;;;;;-6.38;53.07;101060.70;1751351;81;20973;-72
2021/12/23 12:01:55;;;;;;;11.97;6.83;;;;;;;-6.15;53.04;101056.88;1745441;81;21461;-73
2021/12/23 12:04:32;;;;;;;12.28;7.03;;;;;;;-5.99;52.85;101058.98;1753076;81;21795;-73
2021/12/23 12:06:59;;;;;;;11.70;6.78;;;;;;;-5.91;52.20;101063.70;1756385;81;21494;-73
2021/12/23 12:09:31;;;;;;;14.35;7.80;;;;;;;-5.86;52.14;101061.96;1756949;81;21478;-72
2021/12/23 12:12:11;;;;;;;10.25;6.53;;;;;;;-5.84;51.36;101065.81;1749580;81;21618;-73
2021/12/23 12:14:42;;;;;;;7.37;4.95;;;;;;;-5.95;51.70;101067.15;1738786;81;21010;-71
2021/12/23 12:17:33;;;;;;;8.63;4.53;;;;;;;-5.95;51.39;101062.44;1733229;82;21032;-71
2021/12/23 12:20:35;;;;;;;10.15;5.12;;;;;;;-5.98;51.30;101057.27;1736865;82;21041;-71
2021/12/23 12:23:14;;;;;;;10.85;5.50;;;;;;;-5.99;51.04;101064.13;1718196;83;21000;-72
2021/12/23 12:25:48;;;;;;;10.65;6.22;;;;;;;-6.03;51.33;101050.86;1726873;83;21416;-72
2021/12/23 12:28:20;;;;;;;10.32;5.95;;;;;;;-5.87;51.61;101055.53;1728578;82;21078;-74
2021/12/23 12:30:54;;;;;;;10.10;6.00;;;;;;;-5.80;51.06;101053.36;1711413;83;21831;-71